Terminal Aerodrome Forecast
Issued by NWS Duluth, MN

Home | Current Version | Previous Version | Text Only | Print | Product List | Glossary On
Versions: 1 2 3 4 5 6 7 8 9 10 11 12 13 14 15 16 17 18 19 20 21 22 23 24 25 26 27 28 29 30
000
FTUS43 KDLH 311100
TAFDLH
TAF
KDLH 311120Z 3112/0112 03014G21KT P6SM OVC028
      TEMPO 3112/3115 SCT025 BKN035
     FM311500 36008G16KT P6SM SCT035
     FM311900 36004KT P6SM SKC
     FM010200 VRB02KT P6SM SKC=

USA.gov is the U.S. government's official web portal to all federal, state and local government web resources and services.